TAF SPJC
SPJC 090430Z 0906/1006 16011KT 9999 OVC020 TX22/0919Z TN17/0911Z BECMG 0906/0908 16007KT BKN014 TEMPO 0909/0911 OVC009 BECMG 0913/0915 BKN015 BECMG 0917/0919 21012KT BKN025=
METAR SPJC
WC SPJC
WS SPJC
ZCZC CCP589 090614 GG MMMXYMYX 090614 SPJCMETA WSPR31 SPJC 090611 SPIM SIGMET A3 VALID 090611/090612 SPJC- SPIM LIMA FIR CNL SIGMET A2 VALID 090312/090612= NNNN
ZCZC CCP473 090548 GG MMMXYMYX 090548 SPJCMETA WSPR31 SPJC 090545 SPIM SIGMET 3 VALID 090545/090845 SPJC- SPIM LIMA FIR EMBD TS OBS AT 0530Z WI S1038 W07458 - S1127 W07552 - S1322 W07308 - S1235 W07122 - S1026 W07131 - S1037 W07345 - S1056 W07418 - S1038 W07458 TOP FL450 STNR NC= NNNN
WV SPJC
ZCZC CCP724 090257 GG MMMXYMYX 090257 SPJCMETA WVPR31 SPJC 090254 SPIM SIGMET 1 VALID 090315/090915 SPJC- SPIM LIMA FIR VA ERUPTION MT SABANCAYA PSN S1547 W07150 VA CLD OBS AT 0210Z VA NOT IDENTIFIABLE FM STLT DATA= NNNN
ZCZC CCP742 082058 GG MMMXYMYX 082058 SPJCMETA WVPR31 SPJC 082037 SPIM SIGMET 4 VALID 082115/090315 SPJC- SPIM LIMA FIR VA ERUPTION MT SABANCAYA PSN S1547 W07150 VA CLD OBS AT 2030Z WI S1526 W07202 - S1549 W07152 - S1536 W07217 - S1526 W07202 SFC/FL240 FCST AT 0230Z VA CLD WI S1510 W07208 - S1548 W07151 - S1523 W07222 - S1510 W07208 SFC/FL240= NNNN